Time;durP1;ratioP1;P1;durP2;ratioP2;P2;SDS_P1;SDS_P2;PMS_P1;PMS_P2;Temp;Humidity;BMP_temperature;BMP_pressure;BME280_temperature;BME280_humidity;BME280_pressure;Samples;Min_cycle;Max_cycle;Signal;HPM_P1;HPM_P2
2022/12/22 03:27:00;;;;;;;;;;;24.50;80.10;;;;;;5113578;28;19956;-55
2022/12/22 03:29:25;;;;;;;;;;;24.50;80.00;;;;;;5114344;28;19915;-53
2022/12/22 03:31:51;;;;;;;;;;;24.50;80.00;;;;;;5114728;28;19915;-55
2022/12/22 03:34:16;;;;;;;;;;;24.50;80.00;;;;;;5096442;28;19918;-53
2022/12/22 03:36:42;;;;;;;;;;;24.50;80.00;;;;;;5112956;28;19915;-55
2022/12/22 03:39:08;;;;;;;;;;;24.50;79.90;;;;;;5114425;28;19923;-55
2022/12/22 03:47:02;;;;;;;;;;;24.50;79.90;;;;;;5113402;28;19911;-54
2022/12/22 03:49:27;;;;;;;;;;;24.50;80.00;;;;;;5114352;28;19907;-55
2022/12/22 03:51:53;;;;;;;;;;;24.50;80.00;;;;;;5114817;28;19968;-52
2022/12/22 03:54:20;;;;;;;;;;;24.50;79.80;;;;;;5117296;28;20002;-55
2022/12/22 03:56:45;;;;;;;;;;;24.50;79.90;;;;;;5118316;28;19980;-50
2022/12/22 03:59:11;;;;;;;;;;;24.50;79.90;;;;;;5117229;28;19961;-54
2022/12/22 04:01:38;;;;;;;;;;;24.50;79.90;;;;;;5116425;28;20354;-54
2022/12/22 04:04:04;;;;;;;;;;;24.50;79.90;;;;;;5118468;28;19949;-49
2022/12/22 04:06:29;;;;;;;;;;;24.50;79.90;;;;;;5118081;28;20300;-54
2022/12/22 04:08:55;;;;;;;;;;;24.50;80.00;;;;;;5118213;28;19933;-54
2022/12/22 04:14:05;;;;;;;;;;;24.40;80.10;;;;;;5118387;28;19910;-54
2022/12/22 04:16:30;;;;;;;;;;;24.40;80.10;;;;;;5118191;28;19904;-55
2022/12/22 04:18:56;;;;;;;;;;;24.40;80.10;;;;;;5082973;28;19904;-52
2022/12/22 04:21:21;;;;;;;;;;;24.40;80.10;;;;;;5117101;28;19907;-53
2022/12/22 04:23:50;;;;;;;;;;;24.30;80.20;;;;;;5117013;28;20235;-54
2022/12/22 04:26:16;;;;;;;;;;;24.40;80.20;;;;;;5112949;28;20299;-56
2022/12/22 04:28:42;;;;;;;;;;;24.30;80.20;;;;;;5116267;28;19918;-55
2022/12/22 04:31:07;;;;;;;;;;;24.30;80.10;;;;;;5097479;28;19911;-56
2022/12/22 04:33:32;;;;;;;;;;;24.30;80.20;;;;;;5116582;27;19923;-54
2022/12/22 04:35:58;;;;;;;;;;;24.30;80.20;;;;;;5116705;28;19918;-53
2022/12/22 04:38:23;;;;;;;;;;;24.30;80.20;;;;;;5116215;28;20330;-55
2022/12/22 04:40:49;;;;;;;;;;;24.20;80.10;;;;;;5116171;28;19910;-55
2022/12/22 04:43:14;;;;;;;;;;;24.20;80.20;;;;;;5116053;28;19918;-55
2022/12/22 04:45:40;;;;;;;;;;;24.30;80.20;;;;;;5112039;28;19908;-54
2022/12/22 04:48:05;;;;;;;;;;;24.20;80.10;;;;;;5113746;27;19914;-54
2022/12/22 04:50:31;;;;;;;;;;;24.30;80.20;;;;;;5115898;28;19912;-55
2022/12/22 04:52:56;;;;;;;;;;;24.20;80.10;;;;;;5115781;28;20342;-51
2022/12/22 04:55:21;;;;;;;;;;;24.30;80.20;;;;;;5115601;28;19930;-54
2022/12/22 04:57:47;;;;;;;;;;;24.30;80.20;;;;;;5114104;27;19915;-54
2022/12/22 05:00:13;;;;;;;;;;;24.40;80.20;;;;;;5114637;28;20367;-56
2022/12/22 05:02:38;;;;;;;;;;;24.40;80.10;;;;;;5114133;27;19923;-56
2022/12/22 05:05:04;;;;;;;;;;;24.40;80.10;;;;;;5097129;28;19908;-51
2022/12/22 05:07:29;;;;;;;;;;;24.40;80.10;;;;;;5115950;28;19903;-54
2022/12/22 05:09:55;;;;;;;;;;;24.40;80.10;;;;;;5112141;28;20431;-52
2022/12/22 05:15:04;;;;;;;;;;;24.40;80.10;;;;;;5114392;28;20389;-56
2022/12/22 05:17:30;;;;;;;;;;;24.40;80.10;;;;;;5096671;28;19908;-54
2022/12/22 05:19:55;;;;;;;;;;;24.30;80.00;;;;;;5115501;28;19908;-54
2022/12/22 05:22:21;;;;;;;;;;;24.30;80.10;;;;;;5114180;28;19916;-55
2022/12/22 05:24:46;;;;;;;;;;;24.30;80.40;;;;;;5113927;27;19957;-56
2022/12/22 05:27:12;;;;;;;;;;;24.30;80.60;;;;;;5114213;28;19908;-54
2022/12/22 05:29:37;;;;;;;;;;;24.20;80.50;;;;;;5113233;28;19955;-52
2022/12/22 05:32:03;;;;;;;;;;;24.20;80.50;;;;;;5114335;27;19920;-51
2022/12/22 05:34:28;;;;;;;;;;;24.20;80.50;;;;;;5114887;28;20415;-55
2022/12/22 05:36:53;;;;;;;;;;;24.20;80.60;;;;;;5114830;28;19912;-54
2022/12/22 05:39:19;;;;;;;;;;;24.10;80.50;;;;;;5114064;28;19919;-50
2022/12/22 05:41:44;;;;;;;;;;;24.10;80.70;;;;;;5096538;28;20323;-54
2022/12/22 05:44:10;;;;;;;;;;;24.10;80.70;;;;;;5115176;28;20312;-53
2022/12/22 05:46:36;;;;;;;;;;;24.20;80.70;;;;;;5097548;28;19919;-56
2022/12/22 05:49:01;;;;;;;;;;;24.20;80.70;;;;;;5112768;28;19968;-55
2022/12/22 05:51:26;;;;;;;;;;;24.20;80.70;;;;;;5114193;28;19936;-53
2022/12/22 05:53:52;;;;;;;;;;;24.20;80.70;;;;;;5113997;28;20289;-54
2022/12/22 05:56:17;;;;;;;;;;;24.20;80.70;;;;;;5114025;28;19908;-51
2022/12/22 05:58:43;;;;;;;;;;;24.10;80.70;;;;;;5113619;28;19954;-55
2022/12/22 06:01:08;;;;;;;;;;;24.20;80.70;;;;;;5112945;28;19912;-55
2022/12/22 06:03:34;;;;;;;;;;;24.20;80.60;;;;;;5115559;28;20074;-51
2022/12/22 06:05:59;;;;;;;;;;;24.20;80.50;;;;;;5115827;28;19908;-54
2022/12/22 06:08:25;;;;;;;;;;;24.20;80.50;;;;;;5115485;28;19915;-52
2022/12/22 06:10:53;;;;;;;;;;;24.20;80.60;;;;;;5096231;28;20251;-54
2022/12/22 06:13:18;;;;;;;;;;;24.20;80.60;;;;;;5116012;28;19965;-54
2022/12/22 06:15:44;;;;;;;;;;;24.20;80.50;;;;;;5114952;28;19908;-55
2022/12/22 06:18:09;;;;;;;;;;;24.30;80.30;;;;;;5115535;28;19930;-55
2022/12/22 06:20:35;;;;;;;;;;;24.20;80.10;;;;;;5114504;28;19919;-54
2022/12/22 06:23:00;;;;;;;;;;;24.20;80.20;;;;;;5115567;28;19911;-55
2022/12/22 06:25:26;;;;;;;;;;;24.20;80.30;;;;;;5115194;28;19942;-55
2022/12/22 06:27:51;;;;;;;;;;;24.20;80.30;;;;;;5115119;28;20270;-55
2022/12/22 06:30:16;;;;;;;;;;;24.20;80.40;;;;;;5113457;28;19975;-56
2022/12/22 06:32:42;;;;;;;;;;;24.20;80.40;;;;;;5114347;28;19916;-54
2022/12/22 06:35:08;;;;;;;;;;;24.20;80.30;;;;;;5114925;28;19908;-54
2022/12/22 06:37:34;;;;;;;;;;;24.20;80.30;;;;;;5096507;28;19963;-56
2022/12/22 06:39:59;;;;;;;;;;;24.10;80.20;;;;;;5096803;28;19957;-56
2022/12/22 06:45:09;;;;;;;;;;;24.10;80.40;;;;;;5114834;28;19933;-53
2022/12/22 06:47:34;;;;;;;;;;;24.10;80.50;;;;;;5095290;27;20042;-51
2022/12/22 06:49:59;;;;;;;;;;;24.10;80.50;;;;;;5114613;28;19980;-55
2022/12/22 06:52:25;;;;;;;;;;;24.10;80.30;;;;;;5112710;28;19916;-54
2022/12/22 06:54:50;;;;;;;;;;;24.10;80.60;;;;;;5118184;27;19911;-55
2022/12/22 06:57:16;;;;;;;;;;;24.00;80.30;;;;;;5129952;27;19919;-54
2022/12/22 06:59:41;;;;;;;;;;;24.00;80.50;;;;;;5112971;28;20362;-54
2022/12/22 07:02:08;;;;;;;;;;;24.00;80.50;;;;;;5113971;28;19912;-55
2022/12/22 07:04:34;;;;;;;;;;;24.00;80.50;;;;;;5114497;28;19908;-55
2022/12/22 07:06:59;;;;;;;;;;;24.00;80.50;;;;;;5114396;28;19922;-53
2022/12/22 07:09:25;;;;;;;;;;;24.00;80.50;;;;;;5112997;28;20000;-51
2022/12/22 07:11:50;;;;;;;;;;;24.00;80.70;;;;;;5127851;27;19915;-53
2022/12/22 07:14:16;;;;;;;;;;;24.10;80.90;;;;;;5115574;27;19937;-53
2022/12/22 07:16:41;;;;;;;;;;;24.00;79.40;;;;;;5114805;27;20378;-50
2022/12/22 07:19:07;;;;;;;;;;;23.90;78.10;;;;;;5116648;28;19961;-49
2022/12/22 07:21:32;;;;;;;;;;;23.90;79.20;;;;;;5119476;27;20388;-53
2022/12/22 07:23:58;;;;;;;;;;;24.00;79.90;;;;;;5112148;28;20003;-53
2022/12/22 07:26:23;;;;;;;;;;;24.10;80.00;;;;;;5111206;27;19969;-52
2022/12/22 07:28:49;;;;;;;;;;;24.10;79.70;;;;;;5117411;27;19916;-54
2022/12/22 07:31:14;;;;;;;;;;;24.10;80.10;;;;;;5122713;28;19911;-52
2022/12/22 07:33:40;;;;;;;;;;;24.10;80.00;;;;;;5112545;28;19903;-48
2022/12/22 07:36:13;;;;;;;;;;;24.10;80.20;;;;;;5122255;28;19970;-52
2022/12/22 07:38:39;;;;;;;;;;;24.00;80.30;;;;;;5113227;28;19923;-50
2022/12/22 07:42:43;;;;;;;;;;;24.00;80.80;;;;;;5114183;28;19904;-52
2022/12/22 07:43:55;;;;;;;;;;;23.90;80.90;;;;;;5121970;28;20290;-51
2022/12/22 07:46:22;;;;;;;;;;;23.80;81.20;;;;;;5110387;28;20268;-46
2022/12/22 07:51:32;;;;;;;;;;;23.70;81.70;;;;;;5114329;28;19915;-47
2022/12/22 07:53:58;;;;;;;;;;;23.60;81.90;;;;;;5096057;28;20258;-46
2022/12/22 07:56:23;;;;;;;;;;;23.50;82.20;;;;;;5112139;28;19915;-54
2022/12/22 07:58:49;;;;;;;;;;;23.50;82.40;;;;;;5113451;28;19907;-51
2022/12/22 08:01:14;;;;;;;;;;;23.40;82.50;;;;;;5125221;28;19994;-51
2022/12/22 08:03:40;;;;;;;;;;;23.30;82.60;;;;;;5134877;28;19904;-49
2022/12/22 08:06:05;;;;;;;;;;;23.30;82.70;;;;;;5103148;28;19914;-50
2022/12/22 08:08:32;;;;;;;;;;;23.30;82.80;;;;;;5114024;28;19935;-46
2022/12/22 08:11:00;;;;;;;;;;;23.20;82.90;;;;;;5095929;28;19908;-51
2022/12/22 08:13:25;;;;;;;;;;;23.20;83.10;;;;;;5095786;28;19927;-48
2022/12/22 08:15:51;;;;;;;;;;;23.20;83.20;;;;;;5113095;28;19973;-46
2022/12/22 08:18:16;;;;;;;;;;;23.10;83.30;;;;;;5113925;28;19911;-49
2022/12/22 08:20:47;;;;;;;;;;;23.00;83.40;;;;;;5114168;28;20246;-49
2022/12/22 08:23:12;;;;;;;;;;;23.00;83.50;;;;;;5113826;28;19910;-48
2022/12/22 08:25:38;;;;;;;;;;;22.90;83.60;;;;;;5112556;28;19982;-49
2022/12/22 08:28:04;;;;;;;;;;;22.90;83.90;;;;;;5112471;28;20334;-52
2022/12/22 08:30:29;;;;;;;;;;;22.80;83.80;;;;;;5113422;28;19998;-49
2022/12/22 08:32:55;;;;;;;;;;;22.70;83.90;;;;;;5113790;28;19968;-49
2022/12/22 08:35:20;;;;;;;;;;;22.70;84.00;;;;;;5124327;28;20254;-52
2022/12/22 08:37:46;;;;;;;;;;;22.70;84.10;;;;;;5105652;28;19930;-48
2022/12/22 08:40:14;;;;;;;;;;;22.60;84.20;;;;;;5116003;28;19911;-50
2022/12/22 08:42:39;;;;;;;;;;;22.60;84.20;;;;;;5116990;28;19904;-49
2022/12/22 08:45:08;;;;;;;;;;;22.60;84.30;;;;;;5117099;28;20346;-48
2022/12/22 08:47:33;;;;;;;;;;;22.60;84.40;;;;;;5115272;28;19920;-48
2022/12/22 08:49:59;;;;;;;;;;;22.50;84.40;;;;;;5117036;28;19914;-52
2022/12/22 08:52:24;;;;;;;;;;;22.50;84.50;;;;;;5097504;28;19912;-54
2022/12/22 08:54:50;;;;;;;;;;;22.50;84.60;;;;;;5116508;28;20088;-51
2022/12/22 08:57:15;;;;;;;;;;;22.40;84.50;;;;;;5116826;28;19926;-47
2022/12/22 08:59:41;;;;;;;;;;;22.40;84.70;;;;;;5116729;28;20288;-50
2022/12/22 09:02:06;;;;;;;;;;;22.50;84.60;;;;;;5115381;28;20372;-54
2022/12/22 09:04:32;;;;;;;;;;;22.60;84.40;;;;;;5116842;28;19904;-56
2022/12/22 09:06:58;;;;;;;;;;;22.70;84.00;;;;;;5117044;28;19903;-52
2022/12/22 09:09:24;;;;;;;;;;;23.00;83.60;;;;;;5116742;28;20006;-50
2022/12/22 09:11:49;;;;;;;;;;;23.20;83.10;;;;;;5114993;28;20049;-49
2022/12/22 09:14:15;;;;;;;;;;;23.40;82.60;;;;;;5116896;28;19911;-51
2022/12/22 09:16:40;;;;;;;;;;;23.60;82.10;;;;;;5116367;28;19911;-49
2022/12/22 09:19:06;;;;;;;;;;;23.70;81.60;;;;;;5116664;28;19956;-49
2022/12/22 09:21:31;;;;;;;;;;;23.90;81.20;;;;;;5098445;28;19910;-52
2022/12/22 09:23:57;;;;;;;;;;;24.00;80.90;;;;;;5115591;28;19915;-49
2022/12/22 09:26:24;;;;;;;;;;;24.00;80.60;;;;;;5116208;28;20324;-52
2022/12/22 09:28:50;;;;;;;;;;;24.10;80.50;;;;;;5116415;28;19908;-46
2022/12/22 09:31:15;;;;;;;;;;;24.10;80.50;;;;;;5116648;28;19915;-54
2022/12/22 09:33:41;;;;;;;;;;;24.10;80.50;;;;;;5114994;28;20324;-51
2022/12/22 09:36:08;;;;;;;;;;;24.10;80.60;;;;;;5132970;27;19903;-47
2022/12/22 09:38:33;;;;;;;;;;;24.00;80.60;;;;;;5136984;27;19919;-48
2022/12/22 09:41:05;;;;;;;;;;;24.00;80.80;;;;;;5136950;27;19904;-48
2022/12/22 09:43:31;;;;;;;;;;;23.90;81.00;;;;;;5124679;27;19915;-48
2022/12/22 09:45:57;;;;;;;;;;;23.80;81.00;;;;;;5114535;28;19908;-50
2022/12/22 09:48:25;;;;;;;;;;;23.80;81.10;;;;;;5116250;28;19903;-51
2022/12/22 09:50:50;;;;;;;;;;;23.80;81.20;;;;;;5114626;28;19914;-53
2022/12/22 09:53:20;;;;;;;;;;;23.70;81.30;;;;;;5115877;28;19904;-50
2022/12/22 09:55:46;;;;;;;;;;;23.70;81.30;;;;;;5110348;28;19919;-53
2022/12/22 09:58:17;;;;;;;;;;;23.40;80.10;;;;;;5113790;28;19911;-52
2022/12/22 10:00:46;;;;;;;;;;;23.40;81.30;;;;;;5110950;27;19928;-55
2022/12/22 10:03:30;;;;;;;;;;;23.40;81.50;;;;;;5115777;28;19904;-49
2022/12/22 10:06:01;;;;;;;;;;;23.40;81.60;;;;;;5114673;28;19908;-49
2022/12/22 10:08:28;;;;;;;;;;;23.40;81.70;;;;;;5115987;28;19904;-50
2022/12/22 10:10:54;;;;;;;;;;;23.40;81.70;;;;;;5115817;28;19912;-50
2022/12/22 10:13:20;;;;;;;;;;;23.30;81.70;;;;;;5115254;28;19910;-49
2022/12/22 10:15:46;;;;;;;;;;;23.30;81.90;;;;;;5113994;28;19908;-51
2022/12/22 10:18:16;;;;;;;;;;;23.20;82.10;;;;;;5115302;28;19928;-51
2022/12/22 10:20:44;;;;;;;;;;;23.20;82.30;;;;;;5115835;28;19991;-52
2022/12/22 10:23:28;;;;;;;;;;;23.10;82.40;;;;;;5114961;28;19911;-49
2022/12/22 10:25:53;;;;;;;;;;;23.10;82.50;;;;;;5114356;28;19911;-51
2022/12/22 10:28:24;;;;;;;;;;;23.10;82.60;;;;;;5115398;28;19923;-48
2022/12/22 10:31:07;;;;;;;;;;;23.10;82.70;;;;;;5115755;28;19921;-49
2022/12/22 10:33:33;;;;;;;;;;;23.10;82.60;;;;;;5115368;28;19968;-50
2022/12/22 10:35:58;;;;;;;;;;;23.10;82.60;;;;;;5118057;27;20002;-49
2022/12/22 10:38:26;;;;;;;;;;;23.10;82.60;;;;;;5115370;28;19915;-48
2022/12/22 10:40:54;;;;;;;;;;;23.20;82.60;;;;;;5096681;28;19911;-50
2022/12/22 10:43:21;;;;;;;;;;;23.20;82.50;;;;;;5114733;28;19904;-51
2022/12/22 10:45:48;;;;;;;;;;;23.20;82.40;;;;;;5113029;28;19907;-51
2022/12/22 10:48:13;;;;;;;;;;;23.20;82.30;;;;;;5114963;28;19954;-49
2022/12/22 10:50:48;;;;;;;;;;;23.30;82.30;;;;;;5114700;28;19943;-51
2022/12/22 10:53:14;;;;;;;;;;;23.30;82.20;;;;;;5096613;28;20376;-55
2022/12/22 10:55:40;;;;;;;;;;;23.40;82.20;;;;;;5113068;28;19908;-53
2022/12/22 10:58:08;;;;;;;;;;;23.30;82.20;;;;;;5112785;28;19908;-52
2022/12/22 11:00:34;;;;;;;;;;;23.40;82.10;;;;;;5105869;28;20241;-47
2022/12/22 11:03:00;;;;;;;;;;;23.30;82.00;;;;;;5112947;28;19910;-49
2022/12/22 11:05:26;;;;;;;;;;;23.40;82.10;;;;;;5096188;28;19946;-48
2022/12/22 11:07:52;;;;;;;;;;;23.40;81.90;;;;;;5096579;28;19903;-53
2022/12/22 11:10:22;;;;;;;;;;;23.40;81.90;;;;;;5114524;28;20010;-48
2022/12/22 11:12:53;;;;;;;;;;;23.50;81.80;;;;;;5112706;28;19950;-52
2022/12/22 11:15:29;;;;;;;;;;;23.50;81.80;;;;;;5114605;28;19904;-56
2022/12/22 11:18:10;;;;;;;;;;;23.40;81.70;;;;;;5114327;28;19961;-55
2022/12/22 11:20:54;;;;;;;;;;;23.40;81.70;;;;;;5114528;28;19904;-56
2022/12/22 11:23:20;;;;;;;;;;;23.40;81.80;;;;;;5113690;28;19907;-51
2022/12/22 11:25:59;;;;;;;;;;;23.40;82.00;;;;;;5114599;28;19910;-53
2022/12/22 11:28:35;;;;;;;;;;;23.30;81.90;;;;;;5114255;28;20307;-48
2022/12/22 11:31:16;;;;;;;;;;;23.30;82.00;;;;;;5114624;28;20267;-52
2022/12/22 11:33:53;;;;;;;;;;;23.30;82.20;;;;;;5113344;28;19916;-46
2022/12/22 11:36:21;;;;;;;;;;;23.30;82.20;;;;;;5114525;28;19903;-47
2022/12/22 11:38:56;;;;;;;;;;;23.30;82.10;;;;;;5134375;28;19940;-50
2022/12/22 11:41:29;;;;;;;;;;;23.30;82.10;;;;;;5134932;28;20353;-46
2022/12/22 11:44:13;;;;;;;;;;;23.30;82.10;;;;;;5117529;28;20414;-48
2022/12/22 11:46:46;;;;;;;;;;;23.30;82.00;;;;;;5114282;28;19903;-46
2022/12/22 11:49:11;;;;;;;;;;;23.30;82.00;;;;;;5116436;28;19957;-47
2022/12/22 11:51:49;;;;;;;;;;;23.20;82.20;;;;;;5115046;28;20002;-51
2022/12/22 11:54:33;;;;;;;;;;;23.20;82.10;;;;;;5118137;28;20342;-48
2022/12/22 11:56:59;;;;;;;;;;;23.20;82.10;;;;;;5113964;28;19904;-49
2022/12/22 11:59:36;;;;;;;;;;;23.20;82.00;;;;;;5113787;28;19970;-52
2022/12/22 12:02:15;;;;;;;;;;;23.20;82.00;;;;;;5113751;28;19911;-47
2022/12/22 12:04:59;;;;;;;;;;;23.20;82.10;;;;;;5113280;28;19915;-54
2022/12/22 12:07:26;;;;;;;;;;;23.20;82.10;;;;;;5122059;28;19907;-53
2022/12/22 12:10:05;;;;;;;;;;;23.10;78.00;;;;;;5109525;28;19916;-52
2022/12/22 12:12:31;;;;;;;;;;;23.00;81.40;;;;;;5107433;28;19939;-55
2022/12/22 12:14:59;;;;;;;;;;;23.10;82.00;;;;;;5114575;28;20347;-53
2022/12/22 12:17:43;;;;;;;;;;;23.10;81.80;;;;;;5117683;28;20228;-50
2022/12/22 12:20:19;;;;;;;;;;;23.10;81.80;;;;;;5117645;28;20314;-47
2022/12/22 12:22:47;;;;;;;;;;;23.10;81.60;;;;;;5118095;28;19956;-48
2022/12/22 12:25:16;;;;;;;;;;;23.10;81.50;;;;;;5116096;28;19979;-49
2022/12/22 12:27:52;;;;;;;;;;;23.10;81.50;;;;;;5097267;28;19918;-48
2022/12/22 12:30:18;;;;;;;;;;;23.10;81.50;;;;;;5105350;28;19916;-49
2022/12/22 12:32:52;;;;;;;;;;;23.10;80.20;;;;;;5125036;27;19922;-49
2022/12/22 12:35:20;;;;;;;;;;;23.10;81.20;;;;;;5138169;27;19914;-53
2022/12/22 12:37:49;;;;;;;;;;;23.10;81.30;;;;;;5127899;27;20003;-48
2022/12/22 12:40:20;;;;;;;;;;;23.10;81.30;;;;;;5126969;27;20312;-54
2022/12/22 12:42:47;;;;;;;;;;;23.10;81.20;;;;;;5127732;27;19918;-51
2022/12/22 12:45:38;;;;;;;;;;;23.10;81.20;;;;;;5098575;28;20182;-50
2022/12/22 12:48:29;;;;;;;;;;;23.10;81.20;;;;;;5116239;28;20376;-55
2022/12/22 12:50:56;;;;;;;;;;;23.10;81.20;;;;;;5125073;27;19919;-51
2022/12/22 12:53:21;;;;;;;;;;;22.70;76.20;;;;;;5126570;27;20285;-52
2022/12/22 12:55:47;;;;;;;;;;;22.80;80.00;;;;;;5114584;28;20006;-56
2022/12/22 12:58:32;;;;;;;;;;;22.90;80.70;;;;;;5127450;27;20212;-55
2022/12/22 13:00:58;;;;;;;;;;;23.00;80.70;;;;;;5111746;28;19964;-50
2022/12/22 13:03:23;;;;;;;;;;;23.00;80.60;;;;;;5112507;28;19915;-49
2022/12/22 13:05:48;;;;;;;;;;;23.10;80.60;;;;;;5111703;28;19950;-54
2022/12/22 13:08:24;;;;;;;;;;;23.10;80.70;;;;;;5116960;28;19908;-57
2022/12/22 13:10:53;;;;;;;;;;;23.10;80.70;;;;;;5098653;28;20242;-50
2022/12/22 13:13:24;;;;;;;;;;;23.10;80.80;;;;;;5116278;28;19912;-52
2022/12/22 13:15:58;;;;;;;;;;;23.00;80.90;;;;;;5114559;28;20259;-51
2022/12/22 13:18:24;;;;;;;;;;;23.00;81.10;;;;;;5116580;28;19908;-52
2022/12/22 13:20:56;;;;;;;;;;;23.00;81.40;;;;;;5115139;28;19976;-50
2022/12/22 13:23:21;;;;;;;;;;;22.90;81.50;;;;;;5116285;28;19912;-56
2022/12/22 13:25:48;;;;;;;;;;;22.90;81.60;;;;;;5116533;28;20342;-53
2022/12/22 13:28:15;;;;;;;;;;;22.80;81.90;;;;;;5116659;28;19911;-55
2022/12/22 13:30:44;;;;;;;;;;;22.70;82.00;;;;;;5097199;28;20262;-54
2022/12/22 13:33:11;;;;;;;;;;;22.70;82.30;;;;;;5113295;28;19915;-52
2022/12/22 13:35:38;;;;;;;;;;;22.60;82.50;;;;;;5124051;27;19912;-51
2022/12/22 13:38:04;;;;;;;;;;;22.50;82.60;;;;;;5103139;28;20393;-49
2022/12/22 13:40:30;;;;;;;;;;;22.50;82.90;;;;;;5114062;28;19912;-49
2022/12/22 13:42:59;;;;;;;;;;;22.50;83.10;;;;;;5113882;28;19912;-55
2022/12/22 13:45:24;;;;;;;;;;;22.40;83.10;;;;;;5112909;28;19949;-55
2022/12/22 13:47:50;;;;;;;;;;;22.40;83.30;;;;;;5114761;28;20324;-56
2022/12/22 13:50:17;;;;;;;;;;;22.30;83.40;;;;;;5123105;27;19915;-56
2022/12/22 13:52:42;;;;;;;;;;;22.30;83.50;;;;;;5121372;27;19916;-55
2022/12/22 13:55:15;;;;;;;;;;;22.30;83.70;;;;;;5126517;27;20031;-56
2022/12/22 13:57:40;;;;;;;;;;;22.20;83.80;;;;;;5126161;27;20471;-57
2022/12/22 14:00:16;;;;;;;;;;;22.10;84.00;;;;;;5131824;27;19923;-57
2022/12/22 14:02:43;;;;;;;;;;;22.10;84.10;;;;;;5113344;27;20658;-55
2022/12/22 14:05:10;;;;;;;;;;;22.10;84.20;;;;;;5123359;27;19912;-60
2022/12/22 14:07:35;;;;;;;;;;;22.00;84.20;;;;;;5118515;27;20342;-58
2022/12/22 14:10:01;;;;;;;;;;;22.00;84.20;;;;;;5099232;27;19924;-56
2022/12/22 14:12:32;;;;;;;;;;;22.00;84.30;;;;;;5096761;27;19923;-52
2022/12/22 14:14:59;;;;;;;;;;;22.00;84.30;;;;;;5114815;27;19922;-51
2022/12/22 14:17:35;;;;;;;;;;;22.00;84.40;;;;;;5096008;28;19912;-58
2022/12/22 14:20:08;;;;;;;;;;;21.90;84.50;;;;;;5115870;28;19915;-53
2022/12/22 14:22:40;;;;;;;;;;;21.90;84.60;;;;;;5096327;28;19923;-58
2022/12/22 14:25:12;;;;;;;;;;;21.90;84.60;;;;;;5114488;28;19912;-54
2022/12/22 14:27:46;;;;;;;;;;;21.90;84.80;;;;;;5113211;28;19990;-48
2022/12/22 14:30:17;;;;;;;;;;;21.90;84.80;;;;;;5114024;28;20015;-51
2022/12/22 14:32:45;;;;;;;;;;;21.80;84.90;;;;;;5116260;27;19919;-48
2022/12/22 14:35:19;;;;;;;;;;;21.80;84.90;;;;;;5135311;27;19907;-50
2022/12/22 14:37:48;;;;;;;;;;;21.80;85.00;;;;;;5130361;27;19920;-50
2022/12/22 14:40:27;;;;;;;;;;;21.80;84.90;;;;;;5110091;28;19969;-51
2022/12/22 14:42:53;;;;;;;;;;;21.80;85.00;;;;;;5113594;28;19923;-52
2022/12/22 14:45:19;;;;;;;;;;;21.80;85.00;;;;;;5095452;28;20278;-49
2022/12/22 14:47:44;;;;;;;;;;;21.80;85.00;;;;;;5115064;28;19915;-54
2022/12/22 14:50:15;;;;;;;;;;;21.80;85.20;;;;;;5111493;28;19922;-52
2022/12/22 14:52:48;;;;;;;;;;;21.80;85.10;;;;;;5096597;28;19914;-49
2022/12/22 14:55:22;;;;;;;;;;;21.80;85.20;;;;;;5119240;27;19915;-48
2022/12/22 14:57:51;;;;;;;;;;;21.80;85.30;;;;;;5116221;27;19911;-51
2022/12/22 15:00:23;;;;;;;;;;;21.80;85.20;;;;;;5095612;28;19911;-50
2022/12/22 15:02:50;;;;;;;;;;;21.80;85.20;;;;;;5110524;28;19911;-55
2022/12/22 15:05:24;;;;;;;;;;;21.80;85.20;;;;;;5096543;28;20007;-53
2022/12/22 15:07:50;;;;;;;;;;;21.80;85.20;;;;;;5114604;28;19994;-55
2022/12/22 15:10:15;;;;;;;;;;;21.80;85.10;;;;;;5114733;28;19912;-50
2022/12/22 15:12:41;;;;;;;;;;;21.80;84.90;;;;;;5114281;28;19965;-54
2022/12/22 15:15:18;;;;;;;;;;;21.80;84.50;;;;;;5110530;28;19973;-51
2022/12/22 15:17:47;;;;;;;;;;;21.80;85.00;;;;;;5095170;28;19915;-54
2022/12/22 15:20:18;;;;;;;;;;;21.80;85.00;;;;;;5113309;28;19908;-54
2022/12/22 15:22:43;;;;;;;;;;;21.80;85.00;;;;;;5097744;28;19916;-56
2022/12/22 15:25:13;;;;;;;;;;;21.80;84.90;;;;;;5112324;28;20435;-56
2022/12/22 15:27:39;;;;;;;;;;;21.80;84.90;;;;;;5113234;28;19998;-54
2022/12/22 15:30:04;;;;;;;;;;;21.80;85.00;;;;;;5092272;27;20014;-52
2022/12/22 15:32:30;;;;;;;;;;;21.80;84.90;;;;;;5124101;28;19916;-56
2022/12/22 15:34:55;;;;;;;;;;;21.80;85.00;;;;;;5116563;28;19908;-57
2022/12/22 15:37:21;;;;;;;;;;;21.80;85.00;;;;;;5116135;28;19972;-46
2022/12/22 15:39:47;;;;;;;;;;;21.30;75.40;;;;;;5095948;28;19960;-41
2022/12/22 15:42:12;;;;;;;;;;;21.20;78.90;;;;;;5093936;28;20358;-46
2022/12/22 15:44:38;;;;;;;;;;;21.30;82.90;;;;;;5111382;28;20085;-46
2022/12/22 15:47:03;;;;;;;;;;;21.40;84.20;;;;;;5110021;28;19918;-43
2022/12/22 15:49:29;;;;;;;;;;;21.40;84.10;;;;;;5115494;28;19915;-48
2022/12/22 15:51:56;;;;;;;;;;;21.40;84.20;;;;;;5115544;27;19938;-42
2022/12/22 15:54:21;;;;;;;;;;;21.50;84.10;;;;;;5101906;28;20361;-44
2022/12/22 15:56:49;;;;;;;;;;;21.50;84.30;;;;;;5124701;27;19911;-42
2022/12/22 15:59:15;;;;;;;;;;;21.50;84.10;;;;;;5128670;27;19911;-40
2022/12/22 16:01:41;;;;;;;;;;;21.50;84.20;;;;;;5138383;27;19907;-41
2022/12/22 16:04:06;;;;;;;;;;;21.60;84.60;;;;;;5129380;27;19911;-41
2022/12/22 16:06:32;;;;;;;;;;;21.60;84.80;;;;;;5135708;27;19911;-40
2022/12/22 16:08:57;;;;;;;;;;;21.70;84.60;;;;;;5126473;27;20018;-43
2022/12/22 16:11:23;;;;;;;;;;;21.70;84.40;;;;;;5099937;28;19923;-41
2022/12/22 16:13:49;;;;;;;;;;;21.70;84.40;;;;;;5099390;28;19907;-41
2022/12/22 16:16:14;;;;;;;;;;;21.70;84.30;;;;;;5099697;27;19918;-42
2022/12/22 16:18:40;;;;;;;;;;;21.60;77.60;;;;;;5137369;27;20008;-43
2022/12/22 16:21:11;;;;;;;;;;;21.50;81.90;;;;;;5136163;27;20247;-43
2022/12/22 16:23:38;;;;;;;;;;;21.60;83.80;;;;;;5117438;27;19918;-44
2022/12/22 16:26:04;;;;;;;;;;;21.60;84.00;;;;;;5115077;28;19915;-45
2022/12/22 16:28:31;;;;;;;;;;;21.60;84.10;;;;;;5117200;28;19915;-43
2022/12/22 16:30:58;;;;;;;;;;;21.60;84.00;;;;;;5098199;28;19919;-43
2022/12/22 16:33:23;;;;;;;;;;;21.60;84.10;;;;;;5112904;28;19955;-43
2022/12/22 16:35:48;;;;;;;;;;;21.70;84.10;;;;;;5125831;27;19969;-44
2022/12/22 16:38:14;;;;;;;;;;;21.70;84.10;;;;;;5117121;28;20336;-42
2022/12/22 16:40:42;;;;;;;;;;;21.60;84.00;;;;;;5119019;27;19943;-44
2022/12/22 16:43:15;;;;;;;;;;;21.60;84.00;;;;;;5126885;27;20006;-43
2022/12/22 16:45:42;;;;;;;;;;;21.60;84.00;;;;;;5115632;28;20338;-43
2022/12/22 16:48:11;;;;;;;;;;;21.60;84.00;;;;;;5122515;27;20346;-43
2022/12/22 16:50:37;;;;;;;;;;;21.60;84.10;;;;;;5119053;27;19918;-45
2022/12/22 16:53:03;;;;;;;;;;;21.60;84.10;;;;;;5117232;27;20003;-50
2022/12/22 16:55:29;;;;;;;;;;;21.60;84.10;;;;;;5122081;27;19912;-42
2022/12/22 16:57:54;;;;;;;;;;;21.60;84.20;;;;;;5115700;28;19930;-43
2022/12/22 17:00:22;;;;;;;;;;;21.60;84.10;;;;;;5096552;28;19962;-43
2022/12/22 17:02:50;;;;;;;;;;;21.60;84.10;;;;;;5116458;28;19915;-44
2022/12/22 17:05:22;;;;;;;;;;;21.60;84.10;;;;;;5116816;28;19914;-43
2022/12/22 17:07:48;;;;;;;;;;;21.60;84.10;;;;;;5098324;28;19953;-43
2022/12/22 17:10:14;;;;;;;;;;;21.60;84.10;;;;;;5115902;28;20293;-43
2022/12/22 17:12:39;;;;;;;;;;;21.60;84.00;;;;;;5116592;28;19940;-44
2022/12/22 17:15:05;;;;;;;;;;;21.60;83.90;;;;;;5116558;28;19915;-42
2022/12/22 17:17:30;;;;;;;;;;;21.70;83.90;;;;;;5115857;28;19908;-43
2022/12/22 17:19:56;;;;;;;;;;;21.70;83.80;;;;;;5116356;28;19908;-44
2022/12/22 17:22:26;;;;;;;;;;;21.70;83.80;;;;;;5116380;28;19914;-45
2022/12/22 17:24:52;;;;;;;;;;;21.70;83.70;;;;;;5096979;28;19911;-43
2022/12/22 17:27:20;;;;;;;;;;;21.70;83.70;;;;;;5116281;28;19911;-44
2022/12/22 17:29:46;;;;;;;;;;;21.70;83.70;;;;;;5115719;28;19912;-44
2022/12/22 17:32:12;;;;;;;;;;;21.70;83.70;;;;;;5097534;28;19923;-42
2022/12/22 17:34:37;;;;;;;;;;;21.70;83.70;;;;;;5098608;27;20251;-45
2022/12/22 17:37:03;;;;;;;;;;;21.60;83.10;;;;;;5115695;27;19915;-41
2022/12/22 17:39:28;;;;;;;;;;;21.60;83.40;;;;;;5115712;28;19908;-41
2022/12/22 17:41:54;;;;;;;;;;;21.60;83.60;;;;;;5095382;28;20033;-45
2022/12/22 17:44:20;;;;;;;;;;;21.60;83.60;;;;;;5115611;28;19907;-42
2022/12/22 17:46:46;;;;;;;;;;;21.60;83.60;;;;;;5115893;28;20278;-42
2022/12/22 17:49:12;;;;;;;;;;;21.60;83.70;;;;;;5114398;28;19922;-43
2022/12/22 17:51:38;;;;;;;;;;;21.60;83.70;;;;;;5110284;27;19998;-42
2022/12/22 17:54:04;;;;;;;;;;;21.60;83.70;;;;;;5110384;28;20370;-45
2022/12/22 17:56:29;;;;;;;;;;;21.50;81.90;;;;;;5123226;27;20003;-43
2022/12/22 17:58:55;;;;;;;;;;;21.40;81.40;;;;;;5115256;28;19908;-43
2022/12/22 18:01:28;;;;;;;;;;;21.40;83.40;;;;;;5114346;28;19976;-46